createdAt,value
2022-10-19T00:01:13.030Z,89.70
2022-10-19T00:03:41.750Z,90.25
2022-10-19T00:06:27.717Z,89.90
2022-10-19T00:09:02.263Z,89.29
2022-10-19T00:11:31.976Z,88.72
2022-10-19T00:14:00.736Z,88.57
2022-10-19T00:16:31.121Z,88.62
2022-10-19T00:19:00.131Z,89.02
2022-10-19T00:21:28.316Z,89.68
2022-10-19T00:23:55.893Z,89.38
2022-10-19T00:26:23.847Z,88.08
2022-10-19T00:28:56.239Z,88.18
2022-10-19T00:31:24.389Z,88.29
2022-10-19T00:33:52.953Z,88.12
2022-10-19T00:36:29.876Z,87.84
2022-10-19T00:38:58.334Z,87.12
2022-10-19T00:41:28.864Z,87.58
2022-10-19T00:43:56.254Z,86.75
2022-10-19T00:46:25.329Z,87.49
2022-10-19T00:48:57.318Z,88.39
2022-10-19T00:51:27.751Z,88.50
2022-10-19T00:53:56.819Z,88.56
2022-10-19T00:56:24.504Z,88.56
2022-10-19T00:58:52.585Z,88.78
2022-10-19T01:01:23.677Z,88.63
2022-10-19T01:03:51.261Z,88.84
2022-10-19T01:06:19.811Z,88.70
2022-10-19T01:08:47.220Z,88.55
2022-10-19T01:11:28.692Z,88.49
2022-10-19T01:13:56.384Z,89.01
2022-10-19T01:16:52.572Z,88.85
2022-10-19T01:19:42.424Z,88.96
2022-10-19T01:22:40.723Z,89.54
2022-10-19T01:25:23.641Z,89.79
2022-10-19T01:28:05.903Z,90.06
2022-10-19T01:31:08.527Z,90.10
2022-10-19T01:33:35.827Z,91.92
2022-10-19T01:36:17.071Z,92.12
2022-10-19T01:39:23.446Z,94.46
2022-10-19T01:41:57.779Z,95.18
2022-10-19T01:44:39.816Z,93.84
2022-10-19T01:47:15.085Z,92.29
2022-10-19T01:49:49.580Z,91.57
2022-10-19T01:52:21.176Z,90.59
2022-10-19T01:54:52.212Z,90.90
2022-10-19T01:57:25.623Z,90.53
2022-10-19T01:59:54.377Z,90.44
2022-10-19T02:02:24.192Z,89.88
2022-10-19T02:04:55.215Z,89.74
2022-10-19T02:07:24.697Z,88.88
2022-10-19T02:09:52.465Z,89.19
2022-10-19T02:12:21.522Z,89.39
2022-10-19T02:14:55.753Z,89.74
2022-10-19T02:17:38.123Z,89.74
2022-10-19T02:20:06.738Z,89.50
2022-10-19T02:22:34.789Z,89.06
2022-10-19T02:25:03.401Z,88.77
2022-10-19T02:27:31.319Z,88.74
2022-10-19T02:30:01.576Z,88.59
2022-10-19T02:32:29.063Z,88.71
2022-10-19T02:34:57.131Z,89.18
2022-10-19T02:37:25.738Z,89.20
2022-10-19T02:39:55.076Z,88.90
2022-10-19T02:43:00.435Z,88.06
2022-10-19T02:45:31.886Z,87.34
2022-10-19T02:48:07.699Z,87.26
2022-10-19T02:50:36.047Z,87.47
2022-10-19T02:53:03.571Z,87.72
2022-10-19T02:55:31.389Z,87.29
2022-10-19T02:57:59.372Z,87.38
2022-10-19T03:00:26.925Z,87.23
2022-10-19T03:02:54.314Z,86.47
2022-10-19T03:05:21.928Z,86.49
2022-10-19T03:07:49.424Z,86.11
2022-10-19T03:10:16.839Z,85.99
2022-10-19T03:12:44.494Z,85.96
2022-10-19T03:15:16.305Z,85.79
2022-10-19T03:17:44.156Z,85.81
2022-10-19T03:20:13.042Z,86.99
2022-10-19T03:22:40.460Z,86.06
2022-10-19T03:25:08.638Z,85.26
2022-10-19T03:27:36.305Z,86.76
2022-10-19T03:30:09.882Z,87.02
2022-10-19T03:32:37.761Z,86.38
2022-10-19T03:35:05.759Z,85.94
2022-10-19T03:37:33.515Z,86.81
2022-10-19T03:40:03.689Z,86.85
2022-10-19T03:42:31.233Z,86.62
2022-10-19T03:44:58.700Z,86.68
2022-10-19T03:47:26.648Z,86.69
2022-10-19T03:49:56.575Z,85.98
2022-10-19T03:52:23.947Z,85.97
2022-10-19T03:54:51.759Z,86.65
2022-10-19T03:57:19.373Z,87.02
2022-10-19T03:59:46.863Z,86.88
2022-10-19T04:02:14.523Z,86.98
2022-10-19T04:04:42.239Z,86.45
2022-10-19T04:07:09.629Z,86.74
2022-10-19T04:09:40.051Z,86.37
2022-10-19T04:12:07.703Z,87.34
2022-10-19T04:14:52.371Z,87.55
2022-10-19T04:17:22.829Z,87.63
2022-10-19T04:19:50.519Z,87.27
2022-10-19T04:22:17.871Z,87.16
2022-10-19T04:24:45.550Z,87.07
2022-10-19T04:27:13.804Z,87.55
2022-10-19T04:29:41.201Z,87.46
2022-10-19T04:32:08.908Z,87.22
2022-10-19T04:34:39.190Z,86.93
2022-10-19T04:37:07.480Z,86.43
2022-10-19T04:39:39.425Z,85.95
2022-10-19T04:42:06.921Z,85.67
2022-10-19T04:44:34.605Z,86.84
2022-10-19T04:47:02.160Z,87.14
2022-10-19T04:49:29.620Z,87.13
2022-10-19T04:51:57.265Z,85.98
2022-10-19T04:54:24.647Z,85.54
2022-10-19T04:56:53.800Z,85.41
2022-10-19T04:59:21.575Z,85.75
2022-10-19T05:01:49.042Z,85.90
2022-10-19T05:04:16.484Z,86.35
2022-10-19T05:06:44.188Z,86.62
2022-10-19T05:09:11.604Z,87.08
2022-10-19T05:11:39.308Z,87.45
2022-10-19T05:14:07.048Z,87.15
2022-10-19T05:16:34.630Z,87.03
2022-10-19T05:19:02.056Z,86.63
2022-10-19T05:21:29.814Z,87.49
2022-10-19T05:23:57.582Z,87.67
2022-10-19T05:26:27.390Z,88.22
2022-10-19T05:28:57.893Z,87.36
2022-10-19T05:31:33.521Z,86.79
2022-10-19T05:34:03.163Z,86.53
2022-10-19T05:36:36.824Z,86.36
2022-10-19T05:39:08.400Z,86.16
2022-10-19T05:41:36.599Z,86.45
2022-10-19T05:44:05.284Z,87.64
2022-10-19T05:46:33.489Z,86.67
2022-10-19T05:49:00.927Z,86.05
2022-10-19T05:51:33.245Z,86.40
2022-10-19T05:54:06.638Z,86.04
2022-10-19T05:56:34.704Z,85.79
2022-10-19T05:59:06.070Z,85.62
2022-10-19T06:01:34.690Z,85.77
2022-10-19T06:04:03.543Z,85.38
2022-10-19T06:06:31.585Z,84.86
2022-10-19T06:08:59.981Z,84.31
2022-10-19T06:11:31.427Z,83.42
2022-10-19T06:14:00.913Z,83.00
2022-10-19T06:16:30.185Z,82.64
2022-10-19T06:18:58.909Z,82.78
2022-10-19T06:21:29.564Z,82.47
2022-10-19T06:24:03.280Z,82.62
2022-10-19T06:26:33.003Z,82.57
2022-10-19T06:29:02.334Z,82.12
2022-10-19T06:31:34.107Z,81.79
2022-10-19T06:34:02.420Z,81.56
2022-10-19T06:36:32.103Z,80.95
2022-10-19T06:39:02.053Z,80.53
2022-10-19T06:41:31.369Z,79.91
2022-10-19T06:44:05.888Z,79.73
2022-10-19T06:46:34.296Z,79.69
2022-10-19T06:49:02.453Z,79.39
2022-10-19T06:51:32.289Z,79.34
2022-10-19T06:54:00.268Z,79.73
2022-10-19T06:56:27.897Z,80.11
2022-10-19T06:58:58.604Z,79.53
2022-10-19T07:01:26.971Z,79.53
2022-10-19T07:03:55.306Z,79.67
2022-10-19T07:06:23.488Z,79.98
2022-10-19T07:08:53.482Z,79.44
2022-10-19T07:11:22.692Z,80.02
2022-10-19T07:13:50.565Z,80.81
2022-10-19T07:16:21.072Z,80.45
2022-10-19T07:18:53.132Z,79.79
2022-10-19T07:21:23.238Z,80.32
2022-10-19T07:23:50.945Z,79.62
2022-10-19T07:26:23.372Z,79.64
2022-10-19T07:28:51.405Z,80.47
2022-10-19T07:31:21.608Z,80.19
2022-10-19T07:34:00.880Z,79.53
2022-10-19T07:36:31.070Z,79.85
2022-10-19T07:39:05.326Z,78.97
2022-10-19T07:41:34.668Z,79.41
2022-10-19T07:44:02.213Z,79.13
2022-10-19T07:46:33.461Z,78.48
2022-10-19T07:49:02.016Z,78.28
2022-10-19T07:51:30.115Z,77.58
2022-10-19T07:53:58.959Z,77.29
2022-10-19T07:56:28.620Z,77.09
2022-10-19T07:58:57.799Z,76.82
2022-10-19T08:01:28.487Z,77.21
2022-10-19T08:04:55.582Z,76.47
2022-10-19T08:06:45.901Z,75.89
2022-10-19T08:09:28.050Z,74.98
2022-10-19T08:12:01.529Z,74.24
2022-10-19T08:14:29.211Z,74.20
2022-10-19T08:16:57.078Z,73.04
2022-10-19T08:19:26.534Z,72.75
2022-10-19T08:21:56.593Z,71.92
2022-10-19T08:24:25.684Z,71.19
2022-10-19T08:26:53.152Z,69.97
2022-10-19T08:29:21.657Z,69.80
2022-10-19T08:31:49.870Z,68.09
2022-10-19T08:34:17.887Z,67.16
2022-10-19T08:36:45.956Z,67.57
2022-10-19T08:39:13.852Z,67.11
2022-10-19T08:41:41.287Z,66.82
2022-10-19T08:44:29.773Z,67.48
2022-10-19T08:47:26.350Z,67.66
2022-10-19T08:49:55.956Z,67.54
2022-10-19T08:52:36.155Z,65.85
2022-10-19T08:55:15.075Z,65.41
2022-10-19T08:58:18.976Z,66.74
2022-10-19T09:01:00.301Z,67.29
2022-10-19T09:03:37.869Z,67.26
2022-10-19T09:06:39.885Z,67.71
2022-10-19T09:09:12.904Z,68.34
2022-10-19T09:11:48.820Z,67.46
2022-10-19T09:14:45.824Z,67.15
2022-10-19T09:17:17.051Z,66.67
2022-10-19T09:19:44.543Z,65.99
2022-10-19T09:22:25.612Z,65.98
2022-10-19T09:24:58.229Z,65.00
2022-10-19T09:27:33.063Z,65.44
2022-10-19T09:30:05.902Z,65.37
2022-10-19T09:32:38.691Z,64.96
2022-10-19T09:35:38.520Z,65.18
2022-10-19T09:38:07.554Z,64.85
2022-10-19T09:40:35.536Z,63.74
2022-10-19T09:43:19.545Z,61.24
2022-10-19T09:46:20.142Z,59.98
2022-10-19T09:48:50.397Z,59.83
2022-10-19T09:51:19.131Z,60.18
2022-10-19T09:53:50.869Z,60.42
2022-10-19T09:56:26.500Z,58.61
2022-10-19T09:58:57.283Z,59.06
2022-10-19T10:01:40.172Z,58.29
2022-10-19T10:04:14.065Z,58.46
2022-10-19T10:06:43.548Z,58.83
2022-10-19T10:09:19.569Z,58.30
2022-10-19T10:11:49.731Z,58.63
2022-10-19T10:14:23.193Z,58.11
2022-10-19T10:17:01.344Z,57.72
2022-10-19T10:19:31.630Z,56.72
2022-10-19T10:21:59.945Z,57.63
2022-10-19T10:24:31.761Z,58.09
2022-10-19T10:27:02.964Z,57.76
2022-10-19T10:29:33.296Z,57.89
2022-10-19T10:32:12.198Z,57.89
2022-10-19T10:34:54.781Z,57.35
2022-10-19T10:37:34.162Z,56.73
2022-10-19T10:40:05.027Z,56.28
2022-10-19T10:42:46.101Z,56.65
2022-10-19T10:45:22.943Z,55.39
2022-10-19T10:47:52.896Z,54.37
2022-10-19T10:50:32.942Z,54.28
2022-10-19T10:53:03.444Z,54.07
2022-10-19T10:55:33.617Z,53.43
2022-10-19T10:58:16.090Z,52.91
2022-10-19T11:00:45.363Z,52.62
2022-10-19T11:03:24.704Z,53.08
2022-10-19T11:05:58.080Z,52.03
2022-10-19T11:08:41.554Z,51.21
2022-10-19T11:11:23.997Z,51.14
2022-10-19T11:13:55.856Z,50.98
2022-10-19T11:16:32.293Z,50.59
2022-10-19T11:19:02.423Z,50.78
2022-10-19T11:22:07.611Z,50.34
2022-10-19T11:24:50.545Z,51.27
2022-10-19T11:27:37.582Z,50.51
2022-10-19T11:30:15.373Z,49.94
2022-10-19T11:33:25.429Z,50.94
2022-10-19T11:35:58.517Z,49.02
2022-10-19T11:38:34.968Z,48.87
2022-10-19T11:41:28.505Z,49.83
2022-10-19T11:44:06.249Z,48.39
2022-10-19T11:47:15.583Z,49.50
2022-10-19T11:52:54.827Z,50.23
2022-10-19T11:55:37.607Z,51.72
2022-10-19T11:58:21.398Z,51.90
2022-10-19T12:01:26.867Z,52.82
2022-10-19T12:04:18.768Z,53.38
2022-10-19T12:07:18.289Z,53.67
2022-10-19T12:09:59.229Z,54.80
2022-10-19T12:12:33.772Z,54.13
2022-10-19T12:15:35.311Z,53.81
2022-10-19T12:18:12.657Z,54.35
2022-10-19T12:20:47.836Z,54.55
2022-10-19T12:23:35.612Z,54.81
2022-10-19T12:26:10.454Z,55.58
2022-10-19T12:28:41.774Z,55.11
2022-10-19T12:31:11.239Z,55.32
2022-10-19T12:34:10.457Z,56.04
2022-10-19T12:37:08.429Z,56.62
2022-10-19T12:39:58.513Z,56.20
2022-10-19T12:42:51.551Z,56.40
2022-10-19T12:45:42.221Z,56.91
2022-10-19T12:48:14.292Z,57.11
2022-10-19T12:50:48.492Z,57.53
2022-10-19T12:53:46.885Z,57.32
2022-10-19T12:56:25.592Z,56.96
2022-10-19T12:58:59.930Z,57.38
2022-10-19T13:01:35.603Z,57.65
2022-10-19T13:04:16.184Z,56.75
2022-10-19T13:07:05.310Z,57.24
2022-10-19T13:09:41.979Z,58.07
2022-10-19T13:12:19.318Z,58.15
2022-10-19T13:14:52.552Z,57.56
2022-10-19T13:17:36.077Z,57.95
2022-10-19T13:20:14.050Z,57.26
2022-10-19T13:22:47.100Z,56.41
2022-10-19T13:25:26.909Z,56.64
2022-10-19T13:28:06.766Z,56.39
2022-10-19T13:30:38.267Z,56.93
2022-10-19T13:33:33.361Z,57.49
2022-10-19T13:36:02.261Z,55.31
2022-10-19T13:41:22.376Z,56.01
2022-10-19T13:43:52.767Z,56.41
2022-10-19T13:46:40.901Z,55.05
2022-10-19T13:49:24.004Z,55.65
2022-10-19T13:52:29.369Z,56.22
2022-10-19T13:55:11.836Z,56.45
2022-10-19T13:57:56.110Z,56.66
2022-10-19T14:00:56.913Z,57.25
2022-10-19T14:03:49.520Z,58.21
2022-10-19T14:06:33.955Z,58.51
2022-10-19T14:09:13.489Z,57.92
2022-10-19T14:11:42.893Z,57.12
2022-10-19T14:14:10.503Z,56.62
2022-10-19T14:16:48.971Z,56.23
2022-10-19T14:19:28.297Z,57.42
2022-10-19T14:21:59.454Z,57.09
2022-10-19T14:24:35.390Z,57.30
2022-10-19T14:27:07.835Z,57.91
2022-10-19T14:29:45.251Z,58.01
2022-10-19T14:32:13.289Z,58.59
2022-10-19T14:34:46.545Z,58.97
2022-10-19T14:37:24.489Z,59.21
2022-10-19T14:40:07.794Z,58.92
2022-10-19T14:42:43.340Z,59.71
2022-10-19T14:45:18.367Z,59.28
2022-10-19T14:48:04.002Z,60.25
2022-10-19T14:50:43.790Z,60.28
2022-10-19T14:53:17.077Z,60.82
2022-10-19T14:55:45.805Z,61.03
2022-10-19T14:58:18.519Z,61.36
2022-10-19T15:00:49.894Z,61.79
2022-10-19T15:03:27.929Z,62.58
2022-10-19T15:06:02.037Z,62.54
2022-10-19T15:08:42.617Z,62.68
2022-10-19T15:11:33.064Z,63.51
2022-10-19T15:14:05.905Z,63.91
2022-10-19T15:16:33.524Z,63.74
2022-10-19T15:19:06.210Z,64.20
2022-10-19T15:21:33.897Z,64.82
2022-10-19T15:24:24.277Z,64.77
2022-10-19T15:27:06.572Z,65.52
2022-10-19T15:29:36.957Z,65.55
2022-10-19T15:32:19.866Z,65.90
2022-10-19T15:34:47.364Z,66.28
2022-10-19T15:37:20.202Z,66.58
2022-10-19T15:39:48.739Z,66.47
2022-10-19T15:42:39.137Z,66.89
2022-10-19T15:45:36.448Z,67.72
2022-10-19T15:48:10.396Z,68.31
2022-10-19T15:50:51.859Z,68.10
2022-10-19T15:53:20.756Z,68.74
2022-10-19T15:55:48.820Z,68.74
2022-10-19T15:58:16.391Z,69.42
2022-10-19T16:00:44.360Z,69.61
2022-10-19T16:03:12.067Z,68.72
2022-10-19T16:05:39.703Z,68.56
2022-10-19T16:08:10.161Z,68.02
2022-10-19T16:10:41.674Z,67.40
2022-10-19T16:13:09.185Z,66.47
2022-10-19T16:15:37.335Z,66.59
2022-10-19T16:18:05.085Z,66.33
2022-10-19T16:20:32.796Z,66.07
2022-10-19T16:23:00.509Z,65.97
2022-10-19T16:25:28.299Z,65.86
2022-10-19T16:27:55.693Z,65.97
2022-10-19T16:30:23.283Z,66.33
2022-10-19T16:32:50.986Z,66.90
2022-10-19T16:35:18.380Z,66.98
2022-10-19T16:37:45.813Z,67.25
2022-10-19T16:40:13.544Z,67.43
2022-10-19T16:42:41.244Z,67.79
2022-10-19T16:45:09.667Z,68.06
2022-10-19T16:47:37.576Z,68.02
2022-10-19T16:50:07.093Z,68.33
2022-10-19T16:52:35.176Z,68.46
2022-10-19T16:55:03.730Z,68.62
2022-10-19T16:57:31.324Z,68.63
2022-10-19T16:59:59.557Z,69.03
2022-10-19T17:02:27.299Z,69.13
2022-10-19T17:04:54.646Z,69.12
2022-10-19T17:07:22.297Z,68.95
2022-10-19T17:09:54.635Z,69.02
2022-10-19T17:12:22.808Z,69.13
2022-10-19T17:14:51.269Z,69.30
2022-10-19T17:17:19.112Z,69.12
2022-10-19T17:19:48.700Z,68.91
2022-10-19T17:22:16.845Z,68.77
2022-10-19T17:24:46.352Z,68.43
2022-10-19T17:27:14.016Z,68.54
2022-10-19T17:29:42.099Z,68.62
2022-10-19T17:32:09.825Z,68.26
2022-10-19T17:34:37.473Z,68.43
2022-10-19T17:37:05.561Z,68.57
2022-10-19T17:39:33.366Z,68.51
2022-10-19T17:42:03.221Z,68.75
2022-10-19T17:44:31.551Z,68.89
2022-10-19T17:47:01.128Z,69.52
2022-10-19T17:49:29.892Z,69.78
2022-10-19T17:51:58.433Z,69.63
2022-10-19T17:54:26.434Z,69.47
2022-10-19T17:56:54.301Z,68.74
2022-10-19T17:59:30.471Z,69.04
2022-10-19T18:02:04.845Z,68.34
2022-10-19T18:04:32.889Z,68.38
2022-10-19T18:07:00.580Z,67.27
2022-10-19T18:09:29.544Z,67.88
2022-10-19T18:11:57.579Z,67.54
2022-10-19T18:14:25.308Z,66.96
2022-10-19T18:16:53.075Z,66.85
2022-10-19T18:19:21.092Z,67.24
2022-10-19T18:21:49.195Z,67.57
2022-10-19T18:24:20.018Z,67.54
2022-10-19T18:26:49.867Z,67.67
2022-10-19T18:29:23.822Z,66.77
2022-10-19T18:31:52.947Z,66.44
2022-10-19T18:34:24.236Z,66.61
2022-10-19T18:36:53.780Z,67.23
2022-10-19T18:39:22.074Z,66.50
2022-10-19T18:41:53.908Z,66.29
2022-10-19T18:44:26.603Z,66.31
2022-10-19T18:46:56.532Z,65.98
2022-10-19T18:49:25.186Z,66.83
2022-10-19T18:51:55.422Z,67.42
2022-10-19T18:54:26.293Z,67.09
2022-10-19T18:56:55.133Z,67.21
2022-10-19T18:59:23.030Z,67.65
2022-10-19T19:01:51.289Z,67.75
2022-10-19T19:04:19.145Z,67.86
2022-10-19T19:06:46.807Z,68.33
2022-10-19T19:09:15.045Z,68.71
2022-10-19T19:11:42.780Z,68.74
2022-10-19T19:14:16.241Z,69.17
2022-10-19T19:16:45.175Z,69.89
2022-10-19T19:19:15.195Z,70.56
2022-10-19T19:21:44.555Z,70.60
2022-10-19T19:24:15.849Z,70.64
2022-10-19T19:26:48.418Z,70.82
2022-10-19T19:29:17.799Z,70.54
2022-10-19T19:31:47.142Z,70.61
2022-10-19T19:34:14.914Z,71.28
2022-10-19T19:36:47.600Z,71.65
2022-10-19T19:39:21.036Z,72.12
2022-10-19T19:41:49.764Z,71.95
2022-10-19T19:44:17.953Z,72.20
2022-10-19T19:46:45.748Z,72.96
2022-10-19T19:49:14.055Z,72.44
2022-10-19T19:51:42.403Z,72.13
2022-10-19T19:54:11.171Z,72.03
2022-10-19T19:56:40.047Z,72.13
2022-10-19T19:59:09.980Z,72.14
2022-10-19T20:01:39.361Z,72.18
2022-10-19T20:04:07.267Z,72.22
2022-10-19T20:06:37.631Z,72.20
2022-10-19T20:09:07.234Z,72.63
2022-10-19T20:11:38.345Z,72.71
2022-10-19T20:14:07.550Z,72.60
2022-10-19T20:16:36.576Z,72.77
2022-10-19T20:19:11.151Z,73.41
2022-10-19T20:21:39.856Z,72.80
2022-10-19T20:24:07.780Z,73.47
2022-10-19T20:26:35.974Z,73.10
2022-10-19T20:29:06.568Z,73.29
2022-10-19T20:31:39.567Z,73.51
2022-10-19T20:34:12.208Z,73.45
2022-10-19T20:36:41.891Z,73.87
2022-10-19T20:39:11.185Z,73.59
2022-10-19T20:41:39.169Z,73.39
2022-10-19T20:44:06.740Z,74.14
2022-10-19T20:46:34.996Z,74.44
2022-10-19T20:49:03.133Z,74.19
2022-10-19T20:51:32.934Z,74.10
2022-10-19T20:54:03.604Z,74.60
2022-10-19T20:56:33.965Z,75.25
2022-10-19T20:59:04.962Z,75.14
2022-10-19T21:01:34.706Z,74.42
2022-10-19T21:04:04.779Z,74.53
2022-10-19T21:06:34.444Z,74.56
2022-10-19T21:09:02.413Z,74.20
2022-10-19T21:11:35.893Z,73.61
2022-10-19T21:14:07.556Z,73.22
2022-10-19T21:16:35.346Z,73.71
2022-10-19T21:19:05.810Z,73.93
2022-10-19T21:21:36.099Z,74.17
2022-10-19T21:24:07.869Z,74.37
2022-10-19T21:26:36.548Z,74.45
2022-10-19T21:29:06.127Z,74.13
2022-10-19T21:31:33.557Z,74.39
2022-10-19T21:34:04.747Z,74.07
2022-10-19T21:36:32.876Z,73.88
2022-10-19T21:39:00.440Z,73.67
2022-10-19T21:41:27.856Z,74.17
2022-10-19T21:43:55.526Z,74.70
2022-10-19T21:46:23.815Z,74.34
2022-10-19T21:48:52.192Z,74.72
2022-10-19T21:51:22.984Z,74.79
2022-10-19T21:53:50.704Z,75.03
2022-10-19T21:56:18.538Z,75.22
2022-10-19T21:58:47.599Z,75.71
2022-10-19T22:01:15.854Z,76.23
2022-10-19T22:03:44.183Z,76.54
2022-10-19T22:06:12.871Z,76.69
2022-10-19T22:08:45.107Z,76.28
2022-10-19T22:11:14.447Z,76.00
2022-10-19T22:13:42.417Z,76.75
2022-10-19T22:16:20.349Z,77.50
2022-10-19T22:18:48.969Z,77.29
2022-10-19T22:21:23.170Z,76.93
2022-10-19T22:23:56.592Z,77.49
2022-10-19T22:26:29.928Z,78.12
2022-10-19T22:28:59.529Z,77.71
2022-10-19T22:31:29.369Z,77.63
2022-10-19T22:33:57.331Z,77.65
2022-10-19T22:36:25.025Z,78.59
2022-10-19T22:38:52.369Z,79.44
2022-10-19T22:41:19.807Z,79.16
2022-10-19T22:43:47.457Z,79.13
2022-10-19T22:46:14.844Z,79.88
2022-10-19T22:48:42.349Z,79.83
2022-10-19T22:51:10.079Z,81.20
2022-10-19T22:53:37.434Z,80.89
2022-10-19T22:56:05.616Z,81.79
2022-10-19T22:58:33.475Z,81.82
2022-10-19T23:01:03.595Z,81.45
2022-10-19T23:03:31.010Z,81.68
2022-10-19T23:05:59.036Z,82.77
2022-10-19T23:08:27.773Z,83.85
2022-10-19T23:10:55.473Z,84.46
2022-10-19T23:13:23.667Z,84.40
2022-10-19T23:15:51.172Z,84.90
2022-10-19T23:18:19.472Z,85.56
2022-10-19T23:20:59.022Z,84.91
2022-10-19T23:23:27.444Z,84.82
2022-10-19T23:26:06.236Z,85.55
2022-10-19T23:28:35.779Z,84.72
2022-10-19T23:31:06.629Z,84.67
2022-10-19T23:33:34.954Z,84.42
2022-10-19T23:36:08.791Z,83.78
2022-10-19T23:38:36.369Z,85.10
2022-10-19T23:41:04.159Z,84.98
2022-10-19T23:43:31.988Z,84.83
2022-10-19T23:45:59.513Z,83.84
2022-10-19T23:48:28.240Z,83.34
2022-10-19T23:50:59.728Z,83.49
2022-10-19T23:53:28.669Z,83.40
2022-10-19T23:56:05.348Z,83.43
2022-10-19T23:58:33.848Z,83.75
